Main page
METAR-TAF:

METAR-TAF

Airports :

Madrid, Spain

Adolfo Suárez Madrid–Barajas Airport

latitude: 40-27N, longitude: 003-33W, elevation: 609 m

Current weather observation

The report was made 25 minutes ago, at 18:30 UTC
Wind 3 kt from the Northwest, varying between West/Southwest and North
Temperature 11°C
Humidity 58%
Pressure 1023 hPa
Visibility 10 km or more
no clouds below 1500 m and no cumulonimbus

METAR: LEMD 191830Z 31003KT 240V010 CAVOK 11/03 Q1023 NOSIG

Time: 19:55 (18:55 UTC)

Forecast

The report was made 1 hour and 55 minutes ago, at 17:00 UTC
Forecast valid from 19 at 18 UTC to 20 at 24 UTC
Wind 5 kt from variable directions
Visibility 10 km or more
no clouds below 1500 m and no cumulonimbus
Probability 30% :
Temporary
from 20 at 04 UTC to 20 at 09 UTC
Visibility: 3000 m
mist
Probability 40% :
Temporary
from 20 at 12 UTC to 20 at 19 UTC
Wind 10 kt from the West/Southwest

TAF: LEMD 191700Z 1918/2024 VRB05KT CAVOK TX16/2015Z TNM01/2006Z PROB30 TEMPO 2004/2009 3000 BR NSC PROB40 TEMPO 2012/2019 25010KT

Weather observations and forecasts of more than 4000 airports (METAR and TAF reports).

The available stations are represented by yellow and red dots on the map.

Hover mouse over dot to see the name of the station.

Then click to see weather observations and forecasts.

To change the map : click on the green buttons with a black cross to zoom in, on the green button with a dash to zoom out, or on the green arrows for adjacent maps.


METAR-TAF: